Time;durP1;ratioP1;P1;durP2;ratioP2;P2;SDS_P1;SDS_P2;PMS_P1;PMS_P2;Temp;Humidity;BMP_temperature;BMP_pressure;BME280_temperature;BME280_humidity;BME280_pressure;Samples;Min_cycle;Max_cycle;Signal;HPM_P1;HPM_P2
2021/08/14 00:01:09;;;;;;;3.27;2.17;;;23.20;99.90;;;;;;4992206;28;20460;-77
2021/08/14 00:03:35;;;;;;;3.17;2.40;;;23.10;99.90;;;;;;4993839;28;20463;-78
2021/08/14 00:06:02;;;;;;;5.40;3.50;;;23.10;99.90;;;;;;4992960;28;20456;-78
2021/08/14 00:08:29;;;;;;;4.50;2.43;;;23.10;99.90;;;;;;4995537;28;20491;-77
2021/08/14 00:10:55;;;;;;;3.70;2.47;;;23.10;99.90;;;;;;4997080;28;20460;-77
2021/08/14 00:13:22;;;;;;;4.00;2.20;;;23.00;99.90;;;;;;4996515;28;20465;-78
2021/08/14 00:15:49;;;;;;;4.27;2.70;;;23.00;99.90;;;;;;4997569;28;20929;-79
2021/08/14 00:18:17;;;;;;;3.40;2.33;;;23.00;99.90;;;;;;4997570;28;20440;-75
2021/08/14 00:20:43;;;;;;;3.97;2.57;;;23.00;99.90;;;;;;4996986;28;20452;-75
2021/08/14 00:23:10;;;;;;;3.00;2.40;;;23.00;99.90;;;;;;4996659;28;20932;-75
2021/08/14 00:25:37;;;;;;;3.70;2.50;;;23.00;99.90;;;;;;4996519;28;20968;-74
2021/08/14 00:28:04;;;;;;;4.33;2.70;;;22.90;99.90;;;;;;4996595;28;20480;-74
2021/08/14 00:30:31;;;;;;;2.93;2.00;;;22.90;99.90;;;;;;4996875;28;20929;-75
2021/08/14 00:32:57;;;;;;;2.90;2.23;;;22.90;99.90;;;;;;4996085;28;20452;-74
2021/08/14 00:35:25;;;;;;;2.60;2.30;;;22.90;99.90;;;;;;4996437;28;20471;-74
2021/08/14 00:37:55;;;;;;;3.37;2.10;;;22.80;99.90;;;;;;4995979;28;20468;-74
2021/08/14 00:40:22;;;;;;;4.23;2.60;;;22.80;99.90;;;;;;4996460;28;20456;-75
2021/08/14 00:42:48;;;;;;;4.57;2.72;;;22.80;99.90;;;;;;4996407;28;20894;-74
2021/08/14 00:45:15;;;;;;;4.70;2.53;;;22.80;99.90;;;;;;4992576;28;20209;-74
2021/08/14 00:47:43;;;;;;;2.70;2.50;;;22.80;99.90;;;;;;4996298;28;20476;-74
2021/08/14 00:50:11;;;;;;;3.53;2.43;;;22.70;99.90;;;;;;4996286;28;20448;-75
2021/08/14 00:52:39;;;;;;;3.93;2.50;;;22.70;99.90;;;;;;4996374;28;20444;-75
2021/08/14 00:55:07;;;;;;;4.13;2.30;;;22.70;99.90;;;;;;4996231;28;20456;-77
2021/08/14 00:57:33;;;;;;;3.40;2.53;;;22.70;99.90;;;;;;4996262;28;20467;-74
2021/08/14 01:00:00;;;;;;;3.07;2.50;;;22.60;99.90;;;;;;4996271;28;20448;-74
2021/08/14 01:02:27;;;;;;;3.30;2.37;;;22.60;99.90;;;;;;4996344;28;20445;-74
2021/08/14 01:04:53;;;;;;;3.00;2.47;;;22.60;99.90;;;;;;4995403;28;20479;-74
2021/08/14 01:07:20;;;;;;;3.90;2.30;;;22.60;99.90;;;;;;4995717;28;20480;-74
2021/08/14 01:09:49;;;;;;;4.60;2.65;;;22.60;99.90;;;;;;4996450;28;20936;-73
2021/08/14 01:12:16;;;;;;;2.70;2.10;;;22.50;99.90;;;;;;4996183;28;20555;-74
2021/08/14 01:14:44;;;;;;;3.75;2.00;;;22.50;99.90;;;;;;4996261;28;20440;-75
2021/08/14 01:17:12;;;;;;;4.93;2.95;;;22.50;99.90;;;;;;4995775;28;20673;-74
2021/08/14 01:19:38;;;;;;;3.33;2.60;;;22.50;99.90;;;;;;4994610;28;20205;-74
2021/08/14 01:22:10;;;;;;;2.78;2.25;;;22.50;99.90;;;;;;4995919;28;20980;-75
2021/08/14 01:24:36;;;;;;;3.07;2.33;;;22.50;99.90;;;;;;4995453;28;20186;-74
2021/08/14 01:27:06;;;;;;;3.33;2.13;;;22.40;99.90;;;;;;4995284;28;20505;-74
2021/08/14 01:29:33;;;;;;;2.40;2.20;;;22.40;99.90;;;;;;4996258;28;20456;-74
2021/08/14 01:32:00;;;;;;;4.15;3.40;;;22.40;99.90;;;;;;4995886;28;20200;-75
2021/08/14 01:34:27;;;;;;;3.53;2.53;;;22.40;99.90;;;;;;4993293;28;20205;-74
2021/08/14 01:36:53;;;;;;;4.10;2.70;;;22.40;99.90;;;;;;4991696;28;20197;-75
2021/08/14 01:39:20;;;;;;;2.93;2.27;;;22.40;99.90;;;;;;4995583;28;20213;-75
2021/08/14 01:41:55;;;;;;;3.35;2.28;;;22.30;99.90;;;;;;4995810;28;20829;-75
2021/08/14 01:44:23;;;;;;;3.40;2.17;;;22.30;99.90;;;;;;4995724;28;20196;-74
2021/08/14 01:46:50;;;;;;;4.05;2.35;;;22.30;99.90;;;;;;4995633;28;20201;-74
2021/08/14 01:49:17;;;;;;;2.92;2.53;;;22.30;99.90;;;;;;4994429;28;20201;-75
2021/08/14 01:51:43;;;;;;;4.93;2.60;;;22.30;99.90;;;;;;4994145;28;20205;-75
2021/08/14 01:54:10;;;;;;;2.33;1.85;;;22.20;99.90;;;;;;4992260;28;20466;-74
2021/08/14 01:56:37;;;;;;;3.45;2.40;;;22.20;99.90;;;;;;4995252;28;20639;-74
2021/08/14 01:59:05;;;;;;;3.72;2.58;;;22.20;99.90;;;;;;4995134;28;20202;-74
2021/08/14 02:01:33;;;;;;;3.45;2.95;;;22.10;99.90;;;;;;4994767;28;20201;-74
2021/08/14 02:04:00;;;;;;;2.63;2.08;;;22.10;99.90;;;;;;4994382;28;20260;-74
2021/08/14 02:06:28;;;;;;;4.65;2.58;;;22.10;99.90;;;;;;4994283;28;20650;-74
2021/08/14 02:08:55;;;;;;;2.95;2.53;;;22.00;99.90;;;;;;4993759;28;20728;-74
2021/08/14 02:11:25;;;;;;;2.88;2.33;;;22.00;99.90;;;;;;4994832;28;20206;-74
2021/08/14 02:13:52;;;;;;;2.20;1.85;;;22.00;99.90;;;;;;4994577;28;20197;-74
2021/08/14 02:16:20;;;;;;;3.90;2.20;;;21.90;99.90;;;;;;4994966;28;20197;-74
2021/08/14 02:18:48;;;;;;;3.90;2.35;;;21.90;99.90;;;;;;4994732;28;20190;-75
2021/08/14 02:21:15;;;;;;;3.88;2.00;;;21.90;99.90;;;;;;4994981;28;20208;-74
2021/08/14 02:23:43;;;;;;;2.38;1.92;;;21.90;99.90;;;;;;4993429;28;20536;-74
2021/08/14 02:26:10;;;;;;;3.42;3.08;;;21.90;99.90;;;;;;4993864;28;20201;-74
2021/08/14 02:28:37;;;;;;;4.47;2.83;;;21.90;99.90;;;;;;4994531;28;20206;-74
2021/08/14 02:31:05;;;;;;;2.50;2.10;;;21.80;99.90;;;;;;4993923;28;20204;-74
2021/08/14 02:33:32;;;;;;;4.75;1.98;;;21.80;99.90;;;;;;4994805;28;20205;-74
2021/08/14 02:36:00;;;;;;;3.45;2.30;;;21.80;99.90;;;;;;4992940;28;20208;-74
2021/08/14 02:38:27;;;;;;;3.22;2.45;;;21.80;99.90;;;;;;4994051;28;20197;-74
2021/08/14 02:40:54;;;;;;;3.33;2.47;;;21.80;99.90;;;;;;4993855;28;20193;-75
2021/08/14 02:43:20;;;;;;;3.33;2.30;;;21.70;99.90;;;;;;4994594;28;20201;-75
2021/08/14 02:45:47;;;;;;;3.00;2.67;;;21.70;99.90;;;;;;4994235;28;20201;-75
2021/08/14 02:48:15;;;;;;;3.85;2.50;;;21.70;99.90;;;;;;4994046;28;20268;-75
2021/08/14 02:50:42;;;;;;;6.10;2.20;;;21.70;99.90;;;;;;4990977;28;20201;-75
2021/08/14 02:53:11;;;;;;;3.20;2.35;;;21.60;99.90;;;;;;4993155;28;20316;-75
2021/08/14 02:55:38;;;;;;;5.80;2.80;;;21.60;99.90;;;;;;4993678;28;20201;-74
2021/08/14 02:58:08;;;;;;;2.90;2.53;;;21.60;99.90;;;;;;4994251;28;20198;-74
2021/08/14 03:00:35;;;;;;;4.45;2.67;;;21.60;99.90;;;;;;4994037;28;20202;-76
2021/08/14 03:03:03;;;;;;;3.55;3.20;;;21.60;99.90;;;;;;4994279;28;20201;-76
2021/08/14 03:05:30;;;;;;;4.55;3.17;;;21.50;99.90;;;;;;4994253;28;20220;-77
2021/08/14 03:07:57;;;;;;;3.10;2.85;;;21.50;99.90;;;;;;4993735;28;20233;-76
2021/08/14 03:10:25;;;;;;;3.88;2.50;;;21.50;99.90;;;;;;4993589;28;20205;-77
2021/08/14 03:12:52;;;;;;;3.72;3.42;;;21.50;99.90;;;;;;4993596;28;20208;-76
2021/08/14 03:15:19;;;;;;;2.72;2.28;;;21.50;99.90;;;;;;4993928;28;20548;-77
2021/08/14 03:17:46;;;;;;;3.80;2.90;;;21.50;99.90;;;;;;4993361;28;20189;-77
2021/08/14 03:20:13;;;;;;;3.45;2.55;;;21.50;99.90;;;;;;4991937;28;20201;-76
2021/08/14 03:22:40;;;;;;;3.80;2.65;;;21.40;99.90;;;;;;4992551;28;20201;-77
2021/08/14 03:25:08;;;;;;;4.72;3.00;;;21.40;99.90;;;;;;4992210;28;20634;-76
2021/08/14 03:27:36;;;;;;;3.53;3.22;;;21.40;99.90;;;;;;4993262;28;20205;-77
2021/08/14 03:30:03;;;;;;;4.88;3.28;;;21.40;99.90;;;;;;4991381;28;20198;-77
2021/08/14 03:32:30;;;;;;;4.15;2.47;;;21.40;99.90;;;;;;4993247;28;20210;-77
2021/08/14 03:34:57;;;;;;;5.82;3.28;;;21.40;99.90;;;;;;4993694;28;20654;-77
2021/08/14 03:37:23;;;;;;;4.22;2.63;;;21.40;99.90;;;;;;4993327;28;20201;-77
2021/08/14 03:39:50;;;;;;;4.13;3.72;;;21.40;99.90;;;;;;4993260;28;20198;-76
2021/08/14 03:42:17;;;;;;;5.13;2.65;;;21.30;99.90;;;;;;4992660;28;20550;-77
2021/08/14 03:44:45;;;;;;;2.95;2.25;;;21.30;99.90;;;;;;4993485;28;20203;-77
2021/08/14 03:47:12;;;;;;;3.45;2.50;;;21.30;99.90;;;;;;4993111;28;20204;-77
2021/08/14 03:49:38;;;;;;;4.22;2.80;;;21.30;99.90;;;;;;4993883;28;20233;-77
2021/08/14 03:52:06;;;;;;;3.38;2.80;;;21.30;99.90;;;;;;4993877;28;20653;-78
2021/08/14 03:54:33;;;;;;;3.78;3.05;;;21.30;99.90;;;;;;4994228;28;20208;-77
2021/08/14 03:56:59;;;;;;;3.72;3.00;;;21.30;99.90;;;;;;4993375;28;20200;-77
2021/08/14 03:59:26;;;;;;;2.75;2.55;;;21.30;99.90;;;;;;4993527;28;20202;-78
2021/08/14 04:01:54;;;;;;;4.38;2.80;;;21.20;99.90;;;;;;4992812;28;20561;-78
2021/08/14 04:04:21;;;;;;;5.55;3.30;;;21.20;99.90;;;;;;4994019;28;20202;-77
2021/08/14 04:06:47;;;;;;;3.22;2.60;;;21.20;99.90;;;;;;4993334;28;20197;-78
2021/08/14 04:09:14;;;;;;;4.68;3.22;;;21.20;99.90;;;;;;4993463;28;20209;-78
2021/08/14 04:11:43;;;;;;;2.83;2.25;;;21.20;99.90;;;;;;4993027;28;20198;-77
2021/08/14 04:14:10;;;;;;;2.58;2.30;;;21.10;99.90;;;;;;4993210;28;20627;-77
2021/08/14 04:16:36;;;;;;;3.13;2.72;;;21.10;99.90;;;;;;4993035;28;20197;-77
2021/08/14 04:19:05;;;;;;;3.65;2.60;;;21.10;99.90;;;;;;4994080;28;20202;-78
2021/08/14 04:21:31;;;;;;;3.67;2.90;;;21.10;99.90;;;;;;4989934;28;20201;-77
2021/08/14 04:23:58;;;;;;;4.45;3.25;;;21.10;99.90;;;;;;4988926;28;20663;-77
2021/08/14 04:26:27;;;;;;;3.15;2.85;;;21.00;99.90;;;;;;4992937;28;20621;-77
2021/08/14 04:28:54;;;;;;;3.55;2.92;;;21.00;99.90;;;;;;4991762;28;20225;-77
2021/08/14 04:31:20;;;;;;;5.07;3.13;;;20.90;99.90;;;;;;4993000;28;20209;-77
2021/08/14 04:33:47;;;;;;;3.78;2.45;;;20.90;99.90;;;;;;4992823;28;20201;-77
2021/08/14 04:36:15;;;;;;;3.25;2.75;;;20.90;99.90;;;;;;4994203;28;20213;-79
2021/08/14 04:38:42;;;;;;;3.20;2.83;;;20.90;99.90;;;;;;4993863;28;20669;-77
2021/08/14 04:41:09;;;;;;;4.05;2.63;;;20.80;99.90;;;;;;4994819;28;20642;-77
2021/08/14 04:43:35;;;;;;;3.90;3.50;;;20.80;99.90;;;;;;4994302;28;20205;-78
2021/08/14 04:46:02;;;;;;;4.78;3.42;;;20.80;99.90;;;;;;4994140;28;20201;-77
2021/08/14 04:48:29;;;;;;;4.75;2.92;;;20.80;99.90;;;;;;4994011;28;20228;-78
2021/08/14 04:50:55;;;;;;;3.42;2.90;;;20.80;99.90;;;;;;4994354;28;20228;-78
2021/08/14 04:53:23;;;;;;;3.45;3.15;;;20.80;99.90;;;;;;4995585;28;20190;-78
2021/08/14 04:55:50;;;;;;;3.80;2.95;;;20.80;99.90;;;;;;4997638;28;20230;-78
2021/08/14 04:58:17;;;;;;;2.63;2.40;;;20.80;99.90;;;;;;4998266;28;20193;-78
2021/08/14 05:00:43;;;;;;;4.00;2.78;;;20.70;99.90;;;;;;4994710;28;20252;-78
2021/08/14 05:03:10;;;;;;;4.03;2.75;;;20.70;99.90;;;;;;4999130;28;20201;-78
2021/08/14 05:05:37;;;;;;;2.70;2.30;;;20.70;99.90;;;;;;4999324;28;20197;-78
2021/08/14 05:08:04;;;;;;;3.97;3.13;;;20.70;99.90;;;;;;4999258;28;20571;-78
2021/08/14 05:10:32;;;;;;;3.08;2.80;;;20.70;99.90;;;;;;4996652;28;20208;-77
2021/08/14 05:12:59;;;;;;;2.97;2.40;;;20.60;99.90;;;;;;4996852;28;20697;-77
2021/08/14 05:15:25;;;;;;;2.60;2.40;;;20.70;99.90;;;;;;4996846;28;20240;-77
2021/08/14 05:17:52;;;;;;;3.22;2.67;;;20.70;99.90;;;;;;4997066;28;20196;-78
2021/08/14 05:20:19;;;;;;;5.20;3.03;;;20.70;99.90;;;;;;4996325;28;20209;-78
2021/08/14 05:22:45;;;;;;;3.20;2.90;;;20.70;99.90;;;;;;4997455;28;20212;-78
2021/08/14 05:25:12;;;;;;;5.65;3.08;;;20.70;99.90;;;;;;4996903;28;20201;-78
2021/08/14 05:27:40;;;;;;;4.15;2.83;;;20.60;99.90;;;;;;4997448;28;20650;-78
2021/08/14 05:30:08;;;;;;;3.80;2.22;;;20.60;99.90;;;;;;4995675;28;20574;-77
2021/08/14 05:32:34;;;;;;;3.17;2.80;;;20.70;99.90;;;;;;4995354;28;20204;-77
2021/08/14 05:35:01;;;;;;;5.40;3.63;;;20.60;99.90;;;;;;4994992;28;20642;-77
2021/08/14 05:37:28;;;;;;;4.90;2.95;;;20.60;99.90;;;;;;4995119;28;20198;-77
2021/08/14 05:39:54;;;;;;;3.88;3.20;;;20.60;99.90;;;;;;4994970;28;20197;-77
2021/08/14 05:42:21;;;;;;;3.35;3.05;;;20.60;99.90;;;;;;4993882;28;20251;-77
2021/08/14 05:44:49;;;;;;;3.63;2.80;;;20.70;99.90;;;;;;4995644;28;20205;-76
2021/08/14 05:47:16;;;;;;;4.82;2.78;;;20.70;99.90;;;;;;4995364;28;20204;-76
2021/08/14 05:49:42;;;;;;;3.65;2.90;;;20.80;99.90;;;;;;4995366;28;20220;-77
2021/08/14 05:52:09;;;;;;;3.30;3.00;;;21.00;99.90;;;;;;4995098;28;20201;-77
2021/08/14 05:54:36;;;;;;;4.60;2.85;;;21.20;99.90;;;;;;4995640;28;20268;-76
2021/08/14 05:57:03;;;;;;;3.53;3.22;;;21.50;99.90;;;;;;4994634;28;20208;-76
2021/08/14 05:59:30;;;;;;;4.53;3.20;;;21.70;99.90;;;;;;4994951;28;20229;-77
2021/08/14 06:01:58;;;;;;;3.25;2.88;;;21.90;99.90;;;;;;4995336;28;20689;-77
2021/08/14 06:04:24;;;;;;;4.00;3.63;;;22.10;99.90;;;;;;4994888;28;20205;-76
2021/08/14 06:06:51;;;;;;;4.07;2.78;;;22.30;99.90;;;;;;4993043;28;20201;-76
2021/08/14 06:09:18;;;;;;;3.10;2.80;;;22.40;99.90;;;;;;4994448;28;20218;-76
2021/08/14 06:11:45;;;;;;;5.83;3.17;;;22.60;99.90;;;;;;4994328;28;20906;-76
2021/08/14 06:14:11;;;;;;;4.27;2.70;;;22.70;99.90;;;;;;4995255;28;20515;-76
2021/08/14 06:16:39;;;;;;;4.37;3.43;;;22.80;99.90;;;;;;4994695;28;20809;-76
2021/08/14 06:19:08;;;;;;;4.40;3.70;;;23.00;99.90;;;;;;4994757;28;20452;-76
2021/08/14 06:21:34;;;;;;;3.03;2.70;;;23.00;99.90;;;;;;4994802;28;20455;-76
2021/08/14 06:24:01;;;;;;;3.33;3.03;;;23.20;99.90;;;;;;4994659;28;20453;-76
2021/08/14 06:26:28;;;;;;;7.53;3.47;;;23.30;99.90;;;;;;4993850;28;20941;-76
2021/08/14 06:28:55;;;;;;;3.70;3.30;;;23.40;99.90;;;;;;4994350;28;20480;-76
2021/08/14 06:31:22;;;;;;;4.30;3.30;;;23.50;99.90;;;;;;4994162;28;20448;-76
2021/08/14 06:33:48;;;;;;;6.20;3.53;;;23.60;99.90;;;;;;4993043;28;20865;-77
2021/08/14 06:36:16;;;;;;;3.80;3.07;;;23.60;99.90;;;;;;4994650;28;20449;-77
2021/08/14 06:38:43;;;;;;;6.00;3.73;;;23.70;99.90;;;;;;4994665;28;20921;-76
2021/08/14 06:41:10;;;;;;;3.90;3.43;;;23.80;99.90;;;;;;4994338;28;20486;-76
2021/08/14 06:43:36;;;;;;;5.50;3.47;;;23.80;99.90;;;;;;4994512;28;20968;-78
2021/08/14 06:46:03;;;;;;;3.90;3.00;;;23.90;99.90;;;;;;4994236;28;20790;-76
2021/08/14 06:48:34;;;;;;;3.43;2.60;;;24.00;99.90;;;;;;4994381;28;20800;-77
2021/08/14 06:51:00;;;;;;;3.80;3.50;;;24.10;99.90;;;;;;4994402;28;20449;-76
2021/08/14 06:53:28;;;;;;;3.67;2.83;;;24.20;99.90;;;;;;4994605;28;20456;-76
2021/08/14 06:55:55;;;;;;;3.77;2.80;;;24.20;99.90;;;;;;4993750;28;20449;-77
2021/08/14 06:58:22;;;;;;;3.73;3.07;;;24.30;99.90;;;;;;4987737;28;20452;-77
2021/08/14 07:00:48;;;;;;;3.83;3.50;;;24.30;99.90;;;;;;4991978;28;20822;-77
2021/08/14 07:03:15;;;;;;;4.13;3.20;;;24.40;99.90;;;;;;4993815;28;20448;-76
2021/08/14 07:05:42;;;;;;;3.53;3.17;;;24.50;99.90;;;;;;4974857;28;20441;-76
2021/08/14 07:08:09;;;;;;;3.90;3.13;;;24.50;99.90;;;;;;4992329;28;20488;-76
2021/08/14 07:10:37;;;;;;;5.10;3.30;;;24.50;99.90;;;;;;4993602;28;20476;-76
2021/08/14 07:13:04;;;;;;;3.30;3.00;;;24.60;99.90;;;;;;4994364;28;20444;-75
2021/08/14 07:15:31;;;;;;;4.00;3.23;;;24.70;99.90;;;;;;4993979;28;20460;-75
2021/08/14 07:17:57;;;;;;;3.40;2.90;;;24.80;99.90;;;;;;4993832;28;20449;-76
2021/08/14 07:20:24;;;;;;;6.13;3.20;;;24.90;99.90;;;;;;4993621;28;20452;-76
2021/08/14 07:22:51;;;;;;;3.87;3.43;;;25.00;99.90;;;;;;4992455;28;21458;-76
2021/08/14 07:25:18;;;;;;;4.60;3.70;;;25.10;99.90;;;;;;4988553;28;22135;-76
2021/08/14 07:27:46;;;;;;;6.80;3.67;;;25.10;99.90;;;;;;4992436;28;20461;-75
2021/08/14 07:30:13;;;;;;;4.67;3.97;;;25.10;99.90;;;;;;4993614;28;20473;-76
2021/08/14 07:32:40;;;;;;;4.63;2.97;;;25.20;99.90;;;;;;4994149;28;20453;-77
2021/08/14 07:35:08;;;;;;;4.43;2.83;;;25.20;99.90;;;;;;4994143;28;20453;-77
2021/08/14 07:37:35;;;;;;;3.80;2.90;;;25.20;99.80;;;;;;4994922;28;20444;-78
2021/08/14 07:40:01;;;;;;;3.90;2.90;;;25.30;99.70;;;;;;4994531;28;20445;-79
2021/08/14 07:42:28;;;;;;;3.87;3.17;;;25.30;99.50;;;;;;4992542;28;20794;-78
2021/08/14 07:44:56;;;;;;;4.77;3.37;;;25.40;99.40;;;;;;4993373;28;20476;-78
2021/08/14 07:47:23;;;;;;;2.97;2.60;;;25.40;99.30;;;;;;4987790;28;20465;-78
2021/08/14 07:49:49;;;;;;;4.80;3.17;;;25.50;99.20;;;;;;4988248;28;20484;-78
2021/08/14 07:52:16;;;;;;;5.40;3.10;;;25.50;99.10;;;;;;4994013;28;20459;-78
2021/08/14 07:54:43;;;;;;;4.10;3.40;;;25.60;99.00;;;;;;4995038;28;20455;-76
2021/08/14 07:57:09;;;;;;;6.33;2.80;;;25.60;98.90;;;;;;4991907;28;20936;-76
2021/08/14 07:59:36;;;;;;;3.80;3.33;;;25.60;98.70;;;;;;4992193;28;20581;-75
2021/08/14 08:02:05;;;;;;;3.73;3.03;;;25.70;98.50;;;;;;4993294;28;20452;-76
2021/08/14 08:04:31;;;;;;;3.13;2.83;;;25.70;98.40;;;;;;4994019;28;20444;-78
2021/08/14 08:06:58;;;;;;;6.77;3.23;;;25.80;98.40;;;;;;4992877;28;20444;-75
2021/08/14 08:09:25;;;;;;;4.07;3.37;;;25.80;98.30;;;;;;4993093;28;20465;-75
2021/08/14 08:11:51;;;;;;;3.53;3.10;;;25.80;98.10;;;;;;4991747;28;20464;-75
2021/08/14 08:14:18;;;;;;;6.63;3.30;;;25.90;98.10;;;;;;4991809;28;20971;-75
2021/08/14 08:16:45;;;;;;;4.37;2.63;;;25.90;97.80;;;;;;4992251;28;20459;-75
2021/08/14 08:19:13;;;;;;;4.03;3.10;;;26.00;97.80;;;;;;4991702;28;20463;-75
2021/08/14 08:21:40;;;;;;;4.63;3.30;;;26.00;97.70;;;;;;4992942;28;20456;-75
2021/08/14 08:24:07;;;;;;;5.40;3.10;;;26.00;97.50;;;;;;4993174;28;20852;-75
2021/08/14 08:26:34;;;;;;;6.60;3.00;;;26.10;97.30;;;;;;4992730;28;20925;-75
2021/08/14 08:29:01;;;;;;;3.87;2.60;;;26.10;97.30;;;;;;4990624;28;20468;-75
2021/08/14 08:31:29;;;;;;;4.17;2.60;;;26.10;97.10;;;;;;4995611;28;20444;-75
2021/08/14 08:33:56;;;;;;;4.13;3.03;;;26.10;97.00;;;;;;4996831;28;20452;-76
2021/08/14 08:36:24;;;;;;;4.73;2.90;;;26.20;96.80;;;;;;4993295;28;20467;-75
2021/08/14 08:38:50;;;;;;;4.53;3.07;;;26.20;96.80;;;;;;4994508;28;20963;-75
2021/08/14 08:41:18;;;;;;;4.70;3.00;;;26.20;96.50;;;;;;4995212;28;20456;-75
2021/08/14 08:43:45;;;;;;;4.63;3.33;;;26.20;96.70;;;;;;4996838;28;20448;-75
2021/08/14 08:46:12;;;;;;;6.67;3.33;;;26.20;96.50;;;;;;4997328;28;20457;-78
2021/08/14 08:48:43;;;;;;;7.53;3.00;;;26.20;96.50;;;;;;4998218;28;20829;-78
2021/08/14 08:51:11;;;;;;;3.80;2.97;;;26.20;96.40;;;;;;4998191;28;20468;-78
2021/08/14 08:53:39;;;;;;;3.30;3.00;;;26.30;96.20;;;;;;4995352;28;20831;-78
2021/08/14 08:56:06;;;;;;;4.20;2.90;;;26.30;96.40;;;;;;4995591;28;20460;-76
2021/08/14 08:58:34;;;;;;;7.00;3.57;;;26.30;96.00;;;;;;4995207;28;20456;-75
2021/08/14 09:01:01;;;;;;;7.80;3.30;;;26.30;93.90;;;;;;4996827;28;20526;-75
2021/08/14 09:03:31;;;;;;;4.90;2.87;;;26.30;95.30;;;;;;4996591;28;20444;-75
2021/08/14 09:05:58;;;;;;;4.57;3.20;;;26.30;95.10;;;;;;4996534;28;20440;-79
2021/08/14 09:08:26;;;;;;;4.37;2.73;;;26.40;95.50;;;;;;4997985;28;20472;-78
2021/08/14 09:11:07;;;;;;;5.33;3.20;;;26.40;95.20;;;;;;4997685;28;20488;-78
2021/08/14 09:13:35;;;;;;;5.97;3.50;;;26.40;95.10;;;;;;4996668;28;20431;-78
2021/08/14 09:16:20;;;;;;;6.17;2.40;;;26.40;94.90;;;;;;4989330;28;20569;-78
2021/08/14 09:18:54;;;;;;;4.63;2.70;;;26.40;95.00;;;;;;4995331;28;20456;-78
2021/08/14 09:21:32;;;;;;;4.63;2.93;;;26.40;94.90;;;;;;4992666;28;20794;-77
2021/08/14 09:24:04;;;;;;;4.13;2.60;;;26.40;95.10;;;;;;4983200;28;20453;-78
2021/08/14 09:26:33;;;;;;;4.13;3.23;;;26.40;94.80;;;;;;4996197;28;20484;-78
2021/08/14 09:29:05;;;;;;;4.90;3.20;;;26.00;91.70;;;;;;4998339;28;20456;-79
2021/08/14 09:31:47;;;;;;;3.90;2.83;;;26.10;93.10;;;;;;4996977;28;20484;-78
2021/08/14 09:34:17;;;;;;;6.57;3.13;;;26.10;93.00;;;;;;4988832;28;20936;-77
2021/08/14 09:36:44;;;;;;;4.50;2.83;;;26.20;93.00;;;;;;4997389;28;20439;-78
2021/08/14 09:39:11;;;;;;;6.50;2.93;;;26.20;93.00;;;;;;5011224;22;20824;-82
2021/08/14 09:41:40;;;;;;;4.27;3.70;;;26.20;93.20;;;;;;4992285;28;20469;-81
2021/08/14 09:44:15;;;;;;;6.10;2.93;;;26.20;93.50;;;;;;4988309;28;20445;-80
2021/08/14 09:46:43;;;;;;;4.17;2.30;;;26.20;93.30;;;;;;4997363;28;20499;-81
2021/08/14 09:49:10;;;;;;;7.27;3.60;;;26.10;93.50;;;;;;4993036;28;20456;-81
2021/08/14 09:51:38;;;;;;;9.30;3.30;;;26.10;93.50;;;;;;4996181;28;20484;-81
2021/08/14 09:54:06;;;;;;;3.67;2.73;;;26.00;93.50;;;;;;4994976;28;20448;-81
2021/08/14 09:56:34;;;;;;;3.90;2.40;;;26.00;93.80;;;;;;5002422;28;20444;-81
2021/08/14 09:59:04;;;;;;;7.70;2.87;;;26.00;93.50;;;;;;4987154;28;20796;-81
2021/08/14 10:01:32;;;;;;;4.50;2.23;;;26.00;93.60;;;;;;5007022;28;20455;-81
2021/08/14 10:03:59;;;;;;;5.60;2.83;;;26.00;93.10;;;;;;5009946;28;20445;-80
2021/08/14 10:06:27;;;;;;;3.60;2.33;;;26.00;92.80;;;;;;4994762;28;20467;-80
2021/08/14 10:08:54;;;;;;;4.07;2.10;;;26.00;93.20;;;;;;4996203;28;20459;-81
2021/08/14 10:11:21;;;;;;;4.30;2.43;;;25.90;93.20;;;;;;4995519;28;20973;-80
2021/08/14 10:13:49;;;;;;;3.40;1.77;;;25.90;93.30;;;;;;4995473;28;20457;-80
2021/08/14 10:16:17;;;;;;;4.03;3.07;;;25.90;92.90;;;;;;4994694;28;20539;-80
2021/08/14 10:18:46;;;;;;;2.40;2.03;;;25.90;92.90;;;;;;4995381;28;20467;-81
2021/08/14 10:21:14;;;;;;;5.50;2.00;;;25.90;92.70;;;;;;4995450;28;20444;-81
2021/08/14 10:23:41;;;;;;;3.63;2.73;;;25.90;93.00;;;;;;4995252;28;20484;-80
2021/08/14 10:26:11;;;;;;;6.37;2.17;;;25.80;92.70;;;;;;4976287;28;20449;-81
2021/08/14 10:28:46;;;;;;;3.67;2.47;;;25.80;93.30;;;;;;4976459;28;20458;-81
2021/08/14 10:31:46;;;;;;;17.13;2.87;;;25.80;93.30;;;;;;4993570;28;20662;-81
2021/08/14 10:34:30;;;;;;;4.87;2.67;;;25.70;92.80;;;;;;4995210;28;20453;-80
2021/08/14 10:36:57;;;;;;;7.10;2.97;;;25.70;93.20;;;;;;4995615;28;20476;-80
2021/08/14 10:39:25;;;;;;;5.40;2.90;;;25.70;93.20;;;;;;4994832;28;20546;-80
2021/08/14 10:41:53;;;;;;;2.73;2.17;;;25.70;92.90;;;;;;4992054;28;20472;-80
2021/08/14 10:44:45;;;;;;;3.30;2.40;;;25.70;93.30;;;;;;4983930;28;20451;-80
2021/08/14 10:47:44;;;;;;;3.33;2.70;;;25.70;93.20;;;;;;4994548;28;20446;-81
2021/08/14 10:50:37;;;;;;;3.73;2.60;;;25.70;93.50;;;;;;4950368;28;20484;-81
2021/08/14 10:53:21;;;;;;;2.90;1.87;;;25.70;93.50;;;;;;5000337;28;20449;-81
2021/08/14 10:55:50;;;;;;;4.03;2.10;;;25.60;93.40;;;;;;4994085;28;20491;-81
2021/08/14 10:58:19;;;;;;;3.23;2.20;;;25.70;93.10;;;;;;4994333;28;20452;-81
2021/08/14 11:00:46;;;;;;;3.10;2.30;;;25.60;93.20;;;;;;5000133;28;20451;-81
2021/08/14 11:03:15;;;;;;;4.57;2.33;;;25.60;92.70;;;;;;4993119;28;20827;-81
2021/08/14 11:05:45;;;;;;;3.47;2.50;;;25.60;93.20;;;;;;4991376;28;20936;-80
2021/08/14 11:08:30;;;;;;;1.90;1.67;;;25.50;92.80;;;;;;4994463;28;20899;-81
2021/08/14 11:10:58;;;;;;;3.97;1.73;;;25.50;93.10;;;;;;4994581;28;21019;-80
2021/08/14 11:13:42;;;;;;;3.20;2.30;;;25.50;92.90;;;;;;4994393;28;20464;-80
2021/08/14 11:16:09;;;;;;;4.20;1.80;;;25.50;92.80;;;;;;4991862;28;20464;-84
2021/08/14 11:18:55;;;;;;;2.50;1.63;;;25.50;92.90;;;;;;4986334;28;20935;-84
2021/08/14 11:21:42;;;;;;;2.27;1.97;;;25.40;92.90;;;;;;4988459;28;20622;-84
2021/08/14 11:24:09;;;;;;;3.27;1.67;;;26.40;93.30;;;;;;4989012;28;20787;-80
2021/08/14 11:26:36;;;;;;;3.00;2.27;;;25.50;93.30;;;;;;4989499;28;20459;-80
2021/08/14 11:29:05;;;;;;;3.47;2.07;;;25.50;93.20;;;;;;4993491;28;20472;-79
2021/08/14 11:31:32;;;;;;;3.67;1.70;;;25.00;93.00;;;;;;4992467;28;20507;-83
2021/08/14 11:34:11;;;;;;;3.40;2.47;;;24.90;93.10;;;;;;4994786;28;20449;-81
2021/08/14 11:36:39;;;;;;;2.60;1.90;;;25.30;92.90;;;;;;4994566;28;20543;-82
2021/08/14 11:39:06;;;;;;;6.50;2.30;;;25.40;93.10;;;;;;4993642;28;20473;-83
2021/08/14 11:41:33;;;;;;;3.00;2.27;;;26.70;93.30;;;;;;4993563;28;20467;-83
2021/08/14 11:44:03;;;;;;;3.77;2.00;;;25.40;93.30;;;;;;4995316;28;20772;-85
2021/08/14 11:46:31;;;;;;;3.23;2.30;;;25.30;92.90;;;;;;4995322;28;20467;-94
2021/08/14 11:49:02;;;;;;;4.60;2.07;;;25.60;93.30;;;;;;4993274;28;20467;-87
2021/08/14 11:51:31;;;;;;;3.93;2.27;;;25.30;93.00;;;;;;4994297;28;20469;-92
2021/08/14 11:54:08;;;;;;;3.33;1.90;;;25.30;93.00;;;;;;4995550;28;20448;-84
2021/08/14 11:56:36;;;;;;;4.00;2.07;;;25.40;92.90;;;;;;4988362;28;20458;-87
2021/08/14 11:59:03;;;;;;;2.20;1.90;;;25.50;93.20;;;;;;4989343;28;20471;-89
2021/08/14 12:01:30;;;;;;;2.80;2.10;;;25.20;93.20;;;;;;4994885;28;20441;-90
2021/08/14 12:03:58;;;;;;;3.83;2.10;;;25.30;93.10;;;;;;4993799;28;20444;-83
2021/08/14 12:06:30;;;;;;;3.50;2.17;;;25.30;92.90;;;;;;4994072;28;20449;-84
2021/08/14 12:08:58;;;;;;;2.20;1.63;;;25.30;92.90;;;;;;4993668;28;20928;-78
2021/08/14 12:11:27;;;;;;;3.63;1.63;;;25.30;93.10;;;;;;4993686;28;20484;-80
2021/08/14 12:14:17;;;;;;;4.30;1.80;;;25.30;92.80;;;;;;4994455;28;20444;-78
2021/08/14 12:16:46;;;;;;;1.93;1.57;;;25.30;93.00;;;;;;4993735;28;20769;-79
2021/08/14 12:19:15;;;;;;;4.63;2.10;;;25.30;93.20;;;;;;4987812;28;20448;-80
2021/08/14 12:21:44;;;;;;;2.27;2.07;;;25.30;93.20;;;;;;4993464;28;20449;-83
2021/08/14 12:24:12;;;;;;;3.80;2.47;;;25.20;92.90;;;;;;4992944;28;20456;-80
2021/08/14 12:26:39;;;;;;;2.93;1.90;;;25.30;93.00;;;;;;4993553;28;20524;-83
2021/08/14 12:29:10;;;;;;;3.57;2.13;;;25.20;92.90;;;;;;4994201;28;20444;-80
2021/08/14 12:31:47;;;;;;;4.40;2.10;;;25.20;93.10;;;;;;4993823;28;20484;-84
2021/08/14 12:34:26;;;;;;;2.77;2.00;;;25.20;93.10;;;;;;4994292;28;20463;-80
2021/08/14 12:37:07;;;;;;;3.07;2.10;;;25.20;92.70;;;;;;4994275;28;20449;-80
2021/08/14 12:39:55;;;;;;;8.83;2.23;;;25.70;92.90;;;;;;4990742;28;20849;-80
2021/08/14 12:42:23;;;;;;;2.90;2.10;;;24.20;92.40;;;;;;4991916;28;20460;-87
2021/08/14 12:44:51;;;;;;;3.20;1.90;;;25.10;92.90;;;;;;4991993;28;20460;-83
2021/08/14 12:47:28;;;;;;;2.77;1.83;;;25.40;93.10;;;;;;4992773;28;20453;-83
2021/08/14 12:50:16;;;;;;;2.47;1.73;;;25.10;92.60;;;;;;4992853;28;20454;-83
2021/08/14 12:52:56;;;;;;;2.90;1.70;;;25.10;92.60;;;;;;4993521;28;20457;-78
2021/08/14 12:55:30;;;;;;;2.90;1.80;;;25.10;92.70;;;;;;4984134;28;20465;-80